TimeEST,TemperatureF,Dew PointF,Humidity,Sea Level PressureIn,VisibilityMPH,Wind Direction,Wind SpeedMPH,Gust SpeedMPH,PrecipitationIn,Events,Conditions,WindDirDegrees,DateUTC
12:00 AM,60,52,68,30.44,,South,3.5,,,,,190,2013-09-04 14:00:00
12:00 AM,59.0,51.8,77,30.42,6.2,South,3.5,-,N/A,,Mostly Cloudy,190,2013-09-04 14:00:00
12:30 AM,59.0,51.8,77,30.42,6.2,South,3.5,-,N/A,,Scattered Clouds,170,2013-09-04 14:30:00
1:00 AM,59.0,51.8,77,30.42,6.2,SSW,4.6,-,N/A,,Scattered Clouds,210,2013-09-04 15:00:00
1:30 AM,57.2,51.8,82,30.39,6.2,SSW,4.6,-,N/A,,Scattered Clouds,200,2013-09-04 15:30:00
2:00 AM,55.4,50.0,82,30.39,6.2,SW,5.8,-,N/A,,Scattered Clouds,220,2013-09-04 16:00:00
2:30 AM,57.2,51.8,82,30.39,6.2,SW,4.6,-,N/A,,Mostly Cloudy,230,2013-09-04 16:30:00
3:00 AM,57,52,79,30.39,,SW,3.5,,,,,220,2013-09-04 17:00:00
3:00 AM,57.2,51.8,82,30.39,6.2,SSW,3.5,-,N/A,,Scattered Clouds,210,2013-09-04 17:00:00
3:30 AM,55.4,51.8,88,30.39,6.2,South,4.6,-,N/A,,Unknown,190,2013-09-04 17:30:00
4:00 AM,53.6,51.8,94,30.39,6.2,SSW,3.5,-,N/A,,Unknown,210,2013-09-04 18:00:00
4:30 AM,53.6,50.0,88,30.39,6.2,Calm,Calm,-,N/A,,Unknown,0,2013-09-04 18:30:00
5:00 AM,53.6,51.8,94,30.39,6.2,South,3.5,-,N/A,,Unknown,190,2013-09-04 19:00:00
5:30 AM,53.6,51.8,94,30.39,6.2,South,3.5,-,N/A,,Unknown,170,2013-09-04 19:30:00
6:00 AM,54,52,90,30.40,,South,4.6,,,,,180,2013-09-04 20:00:00
6:00 AM,53.6,51.8,94,30.39,6.2,South,4.6,-,N/A,,Unknown,170,2013-09-04 20:00:00
6:30 AM,55.4,51.8,88,30.42,6.2,South,5.8,-,N/A,,Unknown,190,2013-09-04 20:30:00
7:00 AM,60.8,55.4,82,30.42,6.2,South,5.8,-,N/A,,Unknown,190,2013-09-04 21:00:00
7:30 AM,64.4,55.4,73,30.42,6.2,South,6.9,-,N/A,,Unknown,190,2013-09-04 21:30:00
8:00 AM,66.2,51.8,60,30.42,6.2,South,9.2,-,N/A,,Unknown,180,2013-09-04 22:00:00
8:30 AM,68.0,53.6,60,30.42,6.2,South,10.4,-,N/A,,Unknown,180,2013-09-04 22:30:00
9:00 AM,68,53,47,30.44,,South,9.2,,,,,170,2013-09-04 23:00:00
9:00 AM,68.0,51.8,56,30.42,6.2,South,9.2,-,N/A,,Unknown,170,2013-09-04 23:00:00
9:30 AM,69.8,53.6,56,30.42,6.2,SSW,10.4,-,N/A,,Unknown,200,2013-09-04 23:30:00
10:00 AM,69.8,51.8,53,30.42,6.2,SSE,10.4,-,N/A,,Unknown,150,2013-09-05 00:00:00
10:30 AM,71.6,51.8,50,30.42,6.2,South,6.9,-,N/A,,Scattered Clouds,170,2013-09-05 00:30:00
11:00 AM,71.6,50.0,46,30.42,6.2,SSE,5.8,-,N/A,,Unknown,150,2013-09-05 01:00:00
11:30 AM,73.4,50.0,44,30.39,6.2,East,11.5,-,N/A,,Unknown,90,2013-09-05 01:30:00
12:00 PM,72,46,28,30.39,,East,10.4,,,,,90,2013-09-05 02:00:00
12:00 PM,71.6,46.4,41,30.39,6.2,East,10.4,-,N/A,,Unknown,90,2013-09-05 02:00:00
12:30 PM,73.4,46.4,38,30.36,6.2,ESE,10.4,-,N/A,,Unknown,110,2013-09-05 02:30:00
1:00 PM,73.4,50.0,44,30.36,6.2,East,11.5,-,N/A,,Unknown,80,2013-09-05 03:00:00
1:30 PM,73.4,50.0,44,30.36,6.2,East,9.2,-,N/A,,Unknown,100,2013-09-05 03:30:00
2:00 PM,71.6,51.8,50,30.33,6.2,ESE,11.5,-,N/A,,Unknown,120,2013-09-05 04:00:00
2:30 PM,71.6,51.8,50,30.33,6.2,East,11.5,-,N/A,,Unknown,90,2013-09-05 04:30:00
3:00 PM,71,51,39,30.34,,ESE,11.5,,,,,110,2013-09-05 05:00:00
3:00 PM,71.6,51.8,50,30.33,6.2,ESE,11.5,-,N/A,,Unknown,110,2013-09-05 05:00:00
3:30 PM,69.8,51.8,53,30.33,6.2,East,11.5,-,N/A,,Unknown,100,2013-09-05 05:30:00
4:00 PM,69.8,51.8,53,30.33,6.2,East,10.4,-,N/A,,Unknown,90,2013-09-05 06:00:00
4:30 PM,68.0,51.8,56,30.33,6.2,East,8.1,-,N/A,,Unknown,90,2013-09-05 06:30:00
5:00 PM,68.0,53.6,60,30.33,6.2,ESE,8.1,-,N/A,,Unknown,110,2013-09-05 07:00:00
5:30 PM,66.2,53.6,64,30.33,6.2,ESE,6.9,-,N/A,,Unknown,110,2013-09-05 07:30:00
6:00 PM,63,52,59,30.36,,SE,4.6,,,,,130,2013-09-05 08:00:00
6:00 PM,62.6,51.8,68,30.36,6.2,SE,4.6,-,N/A,,Unknown,130,2013-09-05 08:00:00
6:30 PM,60.8,53.6,77,30.36,6.2,WSW,4.6,-,N/A,,Unknown,250,2013-09-05 08:30:00
7:00 PM,59.0,53.6,82,30.36,6.2,WSW,5.8,-,N/A,,Unknown,240,2013-09-05 09:00:00
7:30 PM,59.0,53.6,82,30.36,6.2,WSW,4.6,-,N/A,,Unknown,240,2013-09-05 09:30:00
8:00 PM,57.2,53.6,88,30.36,6.2,WSW,5.8,-,N/A,,Unknown,240,2013-09-05 10:00:00
8:30 PM,57.2,53.6,88,30.36,6.2,WSW,2.3,-,N/A,,Unknown,240,2013-09-05 10:30:00
9:00 PM,56,53,85,30.39,,West,3.5,,,,,260,2013-09-05 11:00:00
9:00 PM,55.4,53.6,94,30.39,6.2,West,3.5,-,N/A,,Unknown,260,2013-09-05 11:00:00
9:30 PM,57.2,53.6,88,30.39,6.2,SSW,2.3,-,N/A,,Unknown,210,2013-09-05 11:30:00
10:00 PM,53.6,51.8,94,30.39,6.2,Calm,Calm,-,N/A,,Unknown,0,2013-09-05 12:00:00
10:30 PM,53.6,51.8,94,30.39,6.2,SW,1.2,-,N/A,,Unknown,230,2013-09-05 12:30:00
11:00 PM,53.6,51.8,94,30.39,6.2,SW,2.3,-,N/A,,Unknown,220,2013-09-05 13:00:00
11:30 PM,53.6,51.8,94,30.39,6.2,SW,2.3,-,N/A,,Unknown,230,2013-09-05 13:30:00